Time;durP1;ratioP1;P1;durP2;ratioP2;P2;SDS_P1;SDS_P2;PMS_P1;PMS_P2;Temp;Humidity;BMP_temperature;BMP_pressure;BME280_temperature;BME280_humidity;BME280_pressure;Samples;Min_cycle;Max_cycle;Signal;HPM_P1;HPM_P2
2021/09/17 00:01:57;;;;;;;10.70;4.90;;;;;;;15.79;40.38;99614.72;27180;1218;3070996;-67
2021/09/17 00:04:26;;;;;;;9.80;4.80;;;;;;;15.78;40.12;99613.95;27240;1216;3027935;-68
2021/09/17 00:06:55;;;;;;;12.00;4.80;;;;;;;15.76;39.97;99613.19;27235;1216;3049944;-64
2021/09/17 00:09:24;;;;;;;8.80;4.40;;;;;;;15.73;39.43;99613.09;27187;1209;3026208;-61
2021/09/17 00:11:53;;;;;;;9.00;4.50;;;;;;;15.69;39.78;99612.84;27229;1217;3054680;-66
2021/09/17 00:14:42;;;;;;;12.50;4.50;;;;;;;15.66;39.33;99611.88;27193;1216;3054012;-67
2021/09/17 00:17:13;;;;;;;10.60;4.30;;;;;;;15.66;38.91;99610.48;27253;1217;3027277;-65
2021/09/17 00:19:53;;;;;;;8.60;4.60;;;;;;;15.64;38.79;99615.02;27207;1216;3051074;-65
2021/09/17 00:22:22;;;;;;;11.40;4.70;;;;;;;15.61;39.15;99612.78;27190;1217;3029117;-68
2021/09/17 00:24:51;;;;;;;8.90;3.60;;;;;;;15.59;38.83;99611.34;27252;1218;3027540;-69
2021/09/17 00:27:40;;;;;;;15.00;4.60;;;;;;;15.58;39.02;99612.83;27217;1217;3049237;-67
2021/09/17 00:30:10;;;;;;;14.00;4.10;;;;;;;15.58;39.32;99612.70;27235;1216;3025924;-65
2021/09/17 00:32:40;;;;;;;9.80;4.30;;;;;;;15.57;39.19;99611.73;27244;1218;3029234;-64
2021/09/17 00:35:11;;;;;;;15.00;4.90;;;;;;;15.53;39.05;99607.58;27172;1216;3027132;-65
2021/09/17 00:37:40;;;;;;;10.20;4.40;;;;;;;15.51;38.91;99604.77;27206;1216;3026629;-65
2021/09/17 00:40:28;;;;;;;8.60;4.50;;;;;;;15.49;39.22;99600.52;27196;1218;3053066;-65
2021/09/17 00:43:19;;;;;;;10.70;4.00;;;;;;;15.48;38.91;99598.11;27188;1218;3054189;-65
2021/09/17 00:47:39;;;;;;;10.00;4.60;;;;;;;15.46;38.93;99599.33;34356;1218;3025359;-66
2021/09/17 00:50:14;;;;;;;9.40;5.20;;;;;;;15.66;38.92;99602.48;27216;1211;3026519;-66
2021/09/17 00:52:43;;;;;;;15.00;5.30;;;;;;;15.87;37.71;99600.52;27202;1217;3054454;-62
2021/09/17 00:55:27;;;;;;;12.10;5.10;;;;;;;15.69;38.26;99598.56;27195;1219;3058423;-63
2021/09/17 00:58:03;;;;;;;11.30;4.20;;;;;;;15.58;38.81;99594.50;27196;1218;3052140;-64
2021/09/17 01:00:40;;;;;;;8.40;3.90;;;;;;;15.49;38.84;99589.77;27255;1216;3052453;-63
2021/09/17 01:03:10;;;;;;;10.40;5.00;;;;;;;15.47;39.26;99590.64;27216;1209;3026232;-64
2021/09/17 01:05:39;;;;;;;12.40;4.70;;;;;;;15.43;39.23;99587.90;27260;1216;3025914;-66
2021/09/17 01:08:08;;;;;;;8.70;4.30;;;;;;;15.38;39.25;99588.80;27202;1216;3054288;-68
2021/09/17 01:10:58;;;;;;;14.20;4.50;;;;;;;15.33;39.36;99585.69;27183;1216;3052423;-69
2021/09/17 01:13:27;;;;;;;12.30;4.40;;;;;;;15.31;39.33;99585.18;27204;1209;3026046;-66
2021/09/17 01:16:16;;;;;;;8.70;4.30;;;;;;;15.26;39.57;99583.96;27205;1216;3048110;-71
2021/09/17 01:18:46;;;;;;;7.50;4.10;;;;;;;15.24;39.65;99582.20;27226;1216;3026143;-66
2021/09/17 01:21:36;;;;;;;9.30;4.10;;;;;;;15.16;40.01;99581.55;27214;1216;3054498;-65
2021/09/17 01:24:07;;;;;;;8.00;4.50;;;;;;;15.10;39.80;99580.39;27228;1216;3027393;-71
2021/09/17 01:26:37;;;;;;;10.00;3.60;;;;;;;15.09;39.95;99573.63;27204;1216;3025703;-63
2021/09/17 01:29:06;;;;;;;10.40;3.90;;;;;;;15.06;39.84;99573.30;27185;1216;3026923;-66
2021/09/17 01:31:52;;;;;;;8.60;3.70;;;;;;;15.09;39.71;99572.76;27223;1209;3053034;-66
2021/09/17 01:34:22;;;;;;;13.10;3.70;;;;;;;15.06;40.12;99570.33;27230;1215;3027757;-62
2021/09/17 01:36:51;;;;;;;9.80;3.90;;;;;;;15.04;39.74;99564.27;27241;1216;3028411;-65
2021/09/17 01:39:21;;;;;;;10.70;3.40;;;;;;;15.05;40.19;99561.58;27246;1215;3027746;-66
2021/09/17 01:41:50;;;;;;;8.60;3.70;;;;;;;15.04;40.01;99557.06;27211;1216;3027557;-66
2021/09/17 01:44:19;;;;;;;13.30;3.50;;;;;;;15.07;40.08;99557.53;27231;1216;3050329;-71
2021/09/17 01:46:48;;;;;;;8.90;3.50;;;;;;;15.07;40.15;99556.27;27233;1216;3026181;-68
2021/09/17 01:49:17;;;;;;;8.50;3.50;;;;;;;15.06;40.19;99552.65;27212;1216;3068549;-67
2021/09/17 01:51:48;;;;;;;9.80;3.40;;;;;;;15.04;39.73;99554.10;27233;1216;3026645;-67
2021/09/17 01:54:30;;;;;;;13.10;3.50;;;;;;;15.00;39.75;99544.66;27260;1216;3054540;-68
2021/09/17 01:56:59;;;;;;;9.20;3.20;;;;;;;15.00;39.76;99543.86;27333;1216;3027904;-66
2021/09/17 01:59:28;;;;;;;9.20;3.50;;;;;;;14.97;39.78;99546.16;27363;1216;3050179;-66
2021/09/17 02:01:57;;;;;;;8.20;3.10;;;;;;;14.97;39.59;99540.70;27361;1216;3025764;-68
2021/09/17 02:04:27;;;;;;;25.40;3.80;;;;;;;14.95;39.68;99542.79;27225;1216;3069079;-66
2021/09/17 02:06:59;;;;;;;11.00;3.30;;;;;;;14.95;39.57;99544.71;27212;1216;3027792;-66
2021/09/17 02:09:42;;;;;;;11.70;3.00;;;;;;;14.92;39.59;99544.94;27235;1216;3052753;-69
2021/09/17 02:12:13;;;;;;;9.30;3.10;;;;;;;14.93;39.78;99544.16;27195;1216;3026110;-64
2021/09/17 02:14:43;;;;;;;9.50;2.70;;;;;;;14.88;39.66;99543.14;27192;1216;3026049;-66
2021/09/17 02:17:16;;;;;;;6.70;2.80;;;;;;;14.88;39.44;99540.30;27219;1216;3030639;-67
2021/09/17 02:19:45;;;;;;;11.20;3.00;;;;;;;14.91;39.57;99537.80;27246;1216;3026378;-64
2021/09/17 02:22:14;;;;;;;8.10;2.80;;;;;;;14.91;39.53;99538.27;27229;1209;3026137;-68
2021/09/17 02:24:43;;;;;;;7.90;3.30;;;;;;;14.90;39.62;99535.02;27199;1218;3051612;-68
2021/09/17 02:27:12;;;;;;;5.40;2.70;;;;;;;14.90;39.67;99529.02;27268;1216;3026516;-63
2021/09/17 02:29:42;;;;;;;6.70;3.00;;;;;;;14.89;40.03;99530.38;27238;1216;3050198;-70
2021/09/17 02:32:13;;;;;;;7.30;2.90;;;;;;;14.89;39.62;99528.09;27241;1216;3029076;-67
2021/09/17 02:34:42;;;;;;;7.30;2.70;;;;;;;14.89;40.05;99523.33;27199;1216;3070419;-69
2021/09/17 02:37:11;;;;;;;8.40;3.30;;;;;;;14.87;40.28;99526.95;27211;1216;3028140;-65
2021/09/17 02:39:42;;;;;;;7.30;2.90;;;;;;;14.86;40.51;99523.38;27254;1216;3052193;-67
2021/09/17 02:42:11;;;;;;;6.30;2.90;;;;;;;14.84;39.87;99523.52;27204;1216;3026655;-67
2021/09/17 02:44:43;;;;;;;8.50;2.70;;;;;;;14.76;40.02;99518.84;27273;1216;3054793;-68
2021/09/17 02:47:18;;;;;;;7.30;3.10;;;;;;;14.73;39.94;99517.27;27210;1216;3050196;-64
2021/09/17 02:49:47;;;;;;;11.90;3.00;;;;;;;14.73;39.74;99519.27;27242;1216;3025960;-65
2021/09/17 02:52:16;;;;;;;9.70;2.90;;;;;;;14.71;39.78;99518.56;27209;1216;3027490;-69
2021/09/17 02:54:45;;;;;;;12.70;3.10;;;;;;;14.71;39.95;99522.56;27164;1216;3051702;-72
2021/09/17 02:57:14;;;;;;;7.20;3.10;;;;;;;14.66;40.32;99524.38;27183;1209;3026453;-65
2021/09/17 03:00:06;;;;;;;10.80;3.20;;;;;;;14.66;40.16;99524.41;27244;1216;3053032;-63
2021/09/17 03:02:35;;;;;;;10.10;3.20;;;;;;;14.67;40.57;99522.52;27212;1216;3027519;-69
2021/09/17 03:05:07;;;;;;;8.40;3.10;;;;;;;14.66;40.35;99520.63;27235;1216;3026108;-63
2021/09/17 03:07:36;;;;;;;16.10;3.40;;;;;;;14.64;40.52;99518.35;27242;1216;3026798;-70
2021/09/17 03:10:06;;;;;;;6.80;3.20;;;;;;;14.62;40.58;99517.59;27223;1216;3028334;-65
2021/09/17 03:12:54;;;;;;;11.50;2.90;;;;;;;14.57;40.53;99517.42;27168;1216;3068573;-67
2021/09/17 03:15:23;;;;;;;7.60;3.40;;;;;;;14.55;41.24;99517.40;27197;1216;3025982;-66
2021/09/17 03:18:12;;;;;;;13.10;3.20;;;;;;;14.58;41.06;99519.33;27222;1217;3049822;-66
2021/09/17 03:20:44;;;;;;;8.60;3.40;;;;;;;14.55;41.12;99518.09;27180;1216;3026126;-65
2021/09/17 03:23:33;;;;;;;10.80;3.70;;;;;;;14.50;41.22;99519.92;27195;1216;3051713;-64
2021/09/17 03:26:02;;;;;;;10.60;2.90;;;;;;;14.48;40.80;99521.85;27256;1216;3026399;-64
2021/09/17 03:28:31;;;;;;;9.10;3.40;;;;;;;14.42;41.11;99520.83;27242;1216;3070012;-69
2021/09/17 03:31:00;;;;;;;15.00;4.10;;;;;;;14.43;41.43;99519.38;27259;1216;3026007;-70
2021/09/17 03:33:32;;;;;;;7.60;3.90;;;;;;;14.41;41.23;99515.27;27198;1216;3053072;-67
2021/09/17 03:36:02;;;;;;;12.20;4.00;;;;;;;14.44;41.79;99515.44;27212;1216;3027681;-65
2021/09/17 03:38:31;;;;;;;10.80;4.00;;;;;;;14.40;41.51;99515.37;27191;1216;3026450;-66
2021/09/17 03:41:01;;;;;;;11.60;3.90;;;;;;;14.40;41.56;99516.56;27183;1216;3049548;-67
2021/09/17 03:43:30;;;;;;;9.80;3.80;;;;;;;14.45;41.37;99520.11;27248;1216;3027160;-67
2021/09/17 03:45:59;;;;;;;9.80;3.80;;;;;;;14.44;41.26;99519.29;27204;1216;3025907;-67
2021/09/17 03:48:28;;;;;;;9.30;3.60;;;;;;;14.40;41.26;99515.15;27180;1218;3052601;-66
2021/09/17 03:50:58;;;;;;;14.50;4.30;;;;;;;14.38;41.64;99519.92;27214;1216;3025846;-67
2021/09/17 03:53:27;;;;;;;10.60;3.90;;;;;;;14.35;41.26;99524.53;27235;1216;3051746;-62
2021/09/17 03:55:57;;;;;;;15.20;4.50;;;;;;;14.37;41.51;99527.56;27226;1216;3026012;-68
2021/09/17 03:58:27;;;;;;;9.40;3.60;;;;;;;14.38;41.22;99523.43;27181;1216;3027002;-69
2021/09/17 04:00:56;;;;;;;17.90;4.10;;;;;;;14.41;40.97;99523.39;27237;1216;3026127;-66
2021/09/17 04:03:25;;;;;;;13.10;3.80;;;;;;;14.44;40.99;99524.80;27215;1216;3049425;-69
2021/09/17 04:05:54;;;;;;;7.40;3.40;;;;;;;14.47;40.85;99524.92;27219;1216;3026169;-68
2021/09/17 04:08:23;;;;;;;11.70;3.90;;;;;;;14.52;40.59;99525.05;27222;1215;3026225;-66
2021/09/17 04:11:12;;;;;;;17.00;4.10;;;;;;;14.55;40.70;99522.70;27212;1200;3053145;-67
2021/09/17 04:13:41;;;;;;;7.80;4.00;;;;;;;14.56;40.82;99520.52;27215;1216;3026365;-64
2021/09/17 04:16:26;;;;;;;11.80;3.40;;;;;;;14.56;41.04;99518.59;27206;1216;3055840;-69
2021/09/17 04:18:55;;;;;;;12.60;3.50;;;;;;;14.61;40.82;99513.95;27234;1216;3026407;-66
2021/09/17 04:21:28;;;;;;;14.90;4.00;;;;;;;14.66;40.30;99514.17;27228;1216;3051612;-66
2021/09/17 04:23:57;;;;;;;15.40;3.40;;;;;;;14.68;40.31;99508.39;27185;1216;3026025;-65
2021/09/17 04:26:27;;;;;;;10.10;3.90;;;;;;;14.67;40.34;99507.52;27226;1216;3026152;-69
2021/09/17 04:28:55;;;;;;;9.90;3.40;;;;;;;14.68;40.37;99509.08;27215;1216;3051437;-63
2021/09/17 04:31:25;;;;;;;10.80;3.90;;;;;;;14.70;40.40;99504.67;27205;1216;3029514;-71
2021/09/17 04:33:55;;;;;;;8.40;3.70;;;;;;;14.75;40.34;99509.21;27299;1216;3056954;-67
2021/09/17 04:36:25;;;;;;;17.00;3.40;;;;;;;14.77;40.16;99509.91;27188;1216;3028429;-65
2021/09/17 04:38:54;;;;;;;11.20;3.30;;;;;;;14.79;40.16;99507.48;27211;1216;3026539;-69
2021/09/17 04:41:23;;;;;;;12.40;3.60;;;;;;;14.81;40.27;99504.36;27201;1216;3055474;-65
2021/09/17 04:43:53;;;;;;;10.40;3.30;;;;;;;14.85;40.10;99504.23;27217;1210;3027088;-69
2021/09/17 04:46:22;;;;;;;8.50;3.50;;;;;;;14.86;40.42;99507.12;27251;1215;3026335;-64
2021/09/17 04:48:51;;;;;;;9.80;3.30;;;;;;;14.87;40.07;99501.81;27198;1215;3056165;-66
2021/09/17 04:51:21;;;;;;;5.80;3.10;;;;;;;14.90;40.24;99503.27;27194;1215;3026018;-70
2021/09/17 04:53:50;;;;;;;12.00;3.10;;;;;;;14.92;40.39;99504.52;27218;1215;3026205;-71
2021/09/17 04:56:19;;;;;;;11.30;3.00;;;;;;;14.94;40.04;99504.54;27213;1215;3055689;-63
2021/09/17 04:58:48;;;;;;;9.60;3.30;;;;;;;15.00;40.16;99500.44;27191;1215;3026603;-70
2021/09/17 05:01:18;;;;;;;11.90;3.20;;;;;;;15.02;40.25;99502.00;27219;1215;3051878;-68
2021/09/17 05:03:50;;;;;;;7.50;3.30;;;;;;;15.04;40.22;99498.35;27236;1215;3026421;-64
2021/09/17 05:06:19;;;;;;;7.30;3.40;;;;;;;15.13;40.12;99501.20;27201;1215;3026203;-64
2021/09/17 05:09:02;;;;;;;7.10;3.00;;;;;;;15.16;40.10;99500.27;27205;1215;3054672;-68
2021/09/17 05:11:51;;;;;;;8.30;2.70;;;;;;;15.15;39.91;99500.30;27213;1216;3051158;-71
2021/09/17 05:14:20;;;;;;;9.60;2.80;;;;;;;15.19;40.13;99501.20;27200;1210;3026834;-70
2021/09/17 05:17:09;;;;;;;14.40;3.30;;;;;;;15.24;40.01;99498.18;27279;1215;3055527;-63
2021/09/17 05:19:40;;;;;;;11.50;3.60;;;;;;;15.31;40.63;99500.08;27193;1215;3026514;-64
2021/09/17 05:22:29;;;;;;;20.70;3.60;;;;;;;15.38;40.78;99497.23;27192;1216;3068909;-67
2021/09/17 05:24:59;;;;;;;17.20;3.60;;;;;;;15.46;40.54;99504.55;27219;1215;3026335;-70
2021/09/17 05:27:28;;;;;;;15.20;3.40;;;;;;;15.55;40.51;99505.03;27199;1215;3053765;-72
2021/09/17 05:29:59;;;;;;;13.30;3.80;;;;;;;15.62;40.48;99506.59;27253;1215;3028699;-64
2021/09/17 05:32:47;;;;;;;12.50;3.30;;;;;;;15.68;40.39;99507.36;27245;1215;3052729;-65
2021/09/17 05:35:17;;;;;;;12.70;3.30;;;;;;;15.75;40.14;99508.34;27238;1215;3026047;-67
2021/09/17 05:37:46;;;;;;;22.10;4.10;;;;;;;15.87;40.25;99511.91;27201;1215;3026464;-66
2021/09/17 05:40:15;;;;;;;13.50;3.50;;;;;;;15.96;40.49;99512.35;27203;1215;3052353;-67
2021/09/17 05:42:44;;;;;;;16.40;3.60;;;;;;;16.04;40.36;99511.73;27222;1215;3026238;-64
2021/09/17 05:45:13;;;;;;;10.80;3.10;;;;;;;16.13;40.43;99515.89;27234;1215;3048963;-70
2021/09/17 05:47:43;;;;;;;16.80;3.20;;;;;;;16.21;40.18;99505.52;27198;1215;3026265;-65
2021/09/17 05:50:13;;;;;;;16.20;3.60;;;;;;;16.31;40.21;99510.95;27246;1215;3028829;-70
2021/09/17 05:52:46;;;;;;;17.50;3.40;;;;;;;16.37;40.31;99503.63;27193;1215;3052037;-70
2021/09/17 05:55:16;;;;;;;14.20;3.40;;;;;;;16.39;40.45;99501.88;27211;1215;3028063;-69
2021/09/17 05:57:45;;;;;;;19.00;3.40;;;;;;;16.46;40.21;99507.55;27216;1215;3026048;-65
2021/09/17 06:00:14;;;;;;;17.60;3.30;;;;;;;16.53;40.33;99508.13;27184;1215;3048843;-67
2021/09/17 06:02:43;;;;;;;9.60;2.90;;;;;;;16.58;40.57;99505.58;27195;1216;3025698;-69
2021/09/17 06:05:12;;;;;;;15.50;2.70;;;;;;;16.62;39.85;99504.02;27239;1215;3055285;-65
2021/09/17 06:08:01;;;;;;;17.90;3.10;;;;;;;16.75;39.83;99505.98;27217;1215;3052549;-68
2021/09/17 06:10:31;;;;;;;13.80;3.10;;;;;;;16.88;40.13;99502.22;27208;1215;3026477;-69
2021/09/17 06:13:00;;;;;;;19.20;3.40;;;;;;;16.97;39.77;99501.81;27215;1215;3027242;-65
2021/09/17 06:15:29;;;;;;;17.70;2.90;;;;;;;17.05;39.34;99503.22;27190;1215;3027875;-73
2021/09/17 06:17:58;;;;;;;19.10;3.30;;;;;;;17.17;39.13;99506.05;27250;1215;3054273;-67
2021/09/17 06:20:28;;;;;;;17.10;3.20;;;;;;;17.23;39.65;99505.38;27184;1215;3028127;-65
2021/09/17 06:22:57;;;;;;;17.60;3.20;;;;;;;17.30;40.04;99505.45;27185;1215;3025899;-72
2021/09/17 06:25:26;;;;;;;21.30;4.00;;;;;;;17.43;39.35;99505.92;27230;1215;3053806;-71
2021/09/17 06:27:55;;;;;;;17.20;2.70;;;;;;;17.55;39.19;99505.04;27192;1211;3026527;-71
2021/09/17 06:30:26;;;;;;;12.20;3.40;;;;;;;17.59;38.80;99507.30;27226;1215;3052146;-68
2021/09/17 06:32:55;;;;;;;16.60;3.20;;;;;;;17.64;39.17;99504.21;27171;1215;3026119;-64
2021/09/17 06:35:24;;;;;;;14.30;3.30;;;;;;;17.69;38.67;99501.48;27229;1215;3026419;-67
2021/09/17 06:37:55;;;;;;;11.80;2.90;;;;;;;17.82;38.20;99500.70;27233;1215;3048700;-69
2021/09/17 06:40:26;;;;;;;15.90;3.20;;;;;;;17.94;38.53;99502.97;27253;1209;3026117;-65
2021/09/17 06:42:56;;;;;;;15.40;3.50;;;;;;;18.04;38.28;99498.86;27272;1215;3027753;-69
2021/09/17 06:45:26;;;;;;;15.30;3.10;;;;;;;18.16;38.11;99499.42;27213;1209;3025765;-66
2021/09/17 06:47:58;;;;;;;12.30;3.70;;;;;;;18.23;37.53;99499.27;27182;1215;3026525;-69
2021/09/17 06:50:28;;;;;;;12.20;3.40;;;;;;;18.27;37.53;99497.49;27255;1215;3026630;-70
2021/09/17 06:52:57;;;;;;;15.40;4.00;;;;;;;18.43;37.34;99492.08;27218;1215;3027600;-68
2021/09/17 06:55:27;;;;;;;16.10;3.90;;;;;;;18.56;37.08;99492.50;27213;1216;3025922;-65
2021/09/17 06:57:59;;;;;;;12.30;3.00;;;;;;;18.67;36.84;99491.29;27230;1215;3027012;-66
2021/09/17 07:00:30;;;;;;;15.30;3.10;;;;;;;18.75;36.55;99491.11;27224;1215;3026226;-70
2021/09/17 07:03:01;;;;;;;11.70;2.50;;;;;;;18.79;35.26;99487.19;27212;1215;3025922;-73
2021/09/17 07:05:30;;;;;;;8.80;2.20;;;;;;;18.87;34.37;99482.36;27240;1215;3026975;-66
2021/09/17 07:08:03;;;;;;;8.50;2.70;;;;;;;18.95;34.63;99476.67;27248;1215;3051118;-68
2021/09/17 07:10:33;;;;;;;8.30;2.20;;;;;;;19.04;34.27;99477.89;27226;1215;3051302;-70
2021/09/17 07:13:22;;;;;;;7.30;1.90;;;;;;;19.18;34.13;99478.56;27184;1216;3071309;-68
2021/09/17 07:15:51;;;;;;;10.50;2.80;;;;;;;19.23;34.31;99479.29;27207;1215;3026025;-69
2021/09/17 07:18:40;;;;;;;10.80;2.50;;;;;;;19.32;34.27;99478.98;27243;1215;3052931;-68
2021/09/17 07:21:10;;;;;;;6.90;2.60;;;;;;;19.34;33.11;99482.12;27171;1215;3025935;-67
2021/09/17 07:23:40;;;;;;;10.60;2.40;;;;;;;19.42;33.03;99479.94;27193;1215;3027305;-69
2021/09/17 07:26:09;;;;;;;11.10;3.00;;;;;;;19.47;32.93;99481.94;27228;1215;3026060;-68
2021/09/17 07:28:38;;;;;;;11.20;2.80;;;;;;;19.50;32.60;99479.41;27210;1215;3067120;-67
2021/09/17 07:31:07;;;;;;;9.20;2.20;;;;;;;19.58;32.73;99474.86;27231;1215;3026002;-69
2021/09/17 07:33:36;;;;;;;6.80;2.30;;;;;;;19.66;32.18;99468.05;27235;1215;3053725;-68
2021/09/17 07:36:05;;;;;;;6.10;2.40;;;;;;;19.62;31.92;99469.11;27206;1215;3027054;-68
2021/09/17 07:38:54;;;;;;;10.90;3.10;;;;;;;19.60;31.65;99467.05;27222;1216;3055527;-63
2021/09/17 07:41:23;;;;;;;9.80;2.90;;;;;;;19.70;31.86;99466.41;27225;1215;3026394;-66
2021/09/17 07:43:52;;;;;;;7.00;2.40;;;;;;;19.80;31.63;99467.33;27233;1208;3025854;-63
2021/09/17 07:46:22;;;;;;;8.50;2.80;;;;;;;19.78;31.01;99463.46;27211;1215;3054704;-65
2021/09/17 07:48:51;;;;;;;5.60;2.30;;;;;;;19.83;31.30;99463.49;27255;1215;3026336;-69
2021/09/17 07:51:20;;;;;;;2.60;1.60;;;;;;;19.91;30.49;99464.11;27198;1215;3049204;-67
2021/09/17 07:53:49;;;;;;;7.70;1.70;;;;;;;20.11;30.31;99460.17;27233;1215;3026358;-70
2021/09/17 07:56:18;;;;;;;7.40;2.10;;;;;;;20.23;30.49;99454.14;27228;1215;3055678;-67
2021/09/17 07:58:46;;;;;;;7.20;2.50;;;;;;;20.23;31.14;99450.85;27209;1215;3026452;-68
2021/09/17 08:01:16;;;;;;;12.20;2.70;;;;;;;20.25;31.25;99453.27;27187;1215;3054874;-69
2021/09/17 08:03:45;;;;;;;10.60;2.70;;;;;;;20.40;31.19;99444.33;27313;1215;3026448;-67
2021/09/17 08:06:15;;;;;;;9.50;2.50;;;;;;;20.36;31.12;99442.58;27304;1215;3052917;-66
2021/09/17 08:08:44;;;;;;;12.50;2.30;;;;;;;20.55;31.24;99439.35;27252;1215;3026258;-63
2021/09/17 08:11:13;;;;;;;8.40;2.30;;;;;;;20.61;31.02;99444.33;27215;1209;3026939;-67
2021/09/17 08:13:42;;;;;;;5.60;2.20;;;;;;;20.65;31.26;99446.89;27209;1215;3026487;-68
2021/09/17 08:16:11;;;;;;;4.60;2.60;;;;;;;20.79;31.20;99438.16;27223;1216;3053800;-68
2021/09/17 08:18:45;;;;;;;8.90;2.50;;;;;;;20.66;31.60;99443.45;27220;1215;3058156;-71
2021/09/17 08:21:14;;;;;;;10.90;3.70;;;;;;;20.79;31.52;99437.16;27223;1215;3025997;-66
2021/09/17 08:23:44;;;;;;;8.90;2.90;;;;;;;20.98;32.00;99435.21;27228;1215;3025637;-63
2021/09/17 08:26:13;;;;;;;9.80;2.90;;;;;;;21.12;31.45;99433.13;27232;1215;3058295;-65
2021/09/17 08:28:43;;;;;;;7.50;2.80;;;;;;;21.06;31.41;99433.77;27198;1215;3026657;-65
2021/09/17 08:31:13;;;;;;;12.30;3.00;;;;;;;21.21;31.30;99426.89;27180;1215;3051823;-65
2021/09/17 08:33:43;;;;;;;10.80;3.10;;;;;;;21.41;30.58;99422.84;27191;1215;3025874;-64
2021/09/17 08:36:12;;;;;;;11.70;2.30;;;;;;;21.48;30.61;99421.21;27223;1215;3051522;-65
2021/09/17 08:38:43;;;;;;;7.50;2.30;;;;;;;21.57;30.58;99415.10;27228;1215;3025933;-69
2021/09/17 08:41:11;;;;;;;8.40;2.20;;;;;;;21.60;30.46;99409.77;27217;1215;3026814;-71
2021/09/17 08:43:43;;;;;;;6.70;2.10;;;;;;;21.69;30.36;99410.90;27235;1215;3053770;-62
2021/09/17 08:46:14;;;;;;;7.60;2.00;;;;;;;21.87;29.53;99414.92;27246;1215;3026467;-62
2021/09/17 08:48:44;;;;;;;7.90;2.20;;;;;;;22.00;30.04;99409.04;27232;1215;3028156;-64
2021/09/17 08:51:14;;;;;;;9.40;2.20;;;;;;;22.01;29.64;99408.33;27204;1215;3027083;-65
2021/09/17 08:53:44;;;;;;;10.30;2.30;;;;;;;21.92;29.53;99403.45;27188;1215;3026240;-63
2021/09/17 08:56:16;;;;;;;5.10;2.10;;;;;;;22.03;29.77;99398.55;27234;1215;3026568;-64
2021/09/17 08:58:46;;;;;;;10.30;2.60;;;;;;;22.02;29.71;99402.04;27210;1215;3026616;-69
2021/09/17 09:01:32;;;;;;;10.40;3.00;;;;;;;21.85;29.67;99401.92;27204;1215;3026352;-66
2021/09/17 09:04:03;;;;;;;7.70;2.90;;;;;;;21.76;29.65;99399.82;27259;1215;3051430;-68
2021/09/17 09:06:39;;;;;;;8.10;2.90;;;;;;;21.92;29.32;99399.38;27200;1215;3026843;-66
2021/09/17 09:09:15;;;;;;;13.60;3.80;;;;;;;22.05;29.06;99389.36;27186;1215;3054846;-66
2021/09/17 09:12:04;;;;;;;10.80;4.00;;;;;;;22.28;29.23;99383.93;27253;1215;3052386;-68
2021/09/17 09:14:34;;;;;;;11.70;3.60;;;;;;;22.44;28.90;99386.09;27211;1215;3027941;-63
2021/09/17 09:17:04;;;;;;;10.40;3.20;;;;;;;22.36;29.01;99386.44;27209;1215;3025847;-72
2021/09/17 09:19:37;;;;;;;7.90;3.00;;;;;;;22.47;29.22;99381.17;27234;1215;3051412;-67
2021/09/17 09:22:09;;;;;;;11.30;3.10;;;;;;;22.66;29.29;99382.34;27203;1215;3028371;-67
2021/09/17 09:24:42;;;;;;;11.50;3.40;;;;;;;22.65;29.03;99383.98;27240;1215;3026412;-64
2021/09/17 09:27:11;;;;;;;9.60;3.20;;;;;;;22.70;28.65;99381.98;27205;1215;3026582;-72
2021/09/17 09:29:43;;;;;;;12.90;3.10;;;;;;;22.78;28.76;99380.24;27218;1215;3029162;-68
2021/09/17 09:32:33;;;;;;;9.20;3.10;;;;;;;22.98;28.34;99373.14;27247;1215;3028609;-63
2021/09/17 09:35:06;;;;;;;12.60;3.30;;;;;;;23.10;28.68;99368.80;27241;1215;3055049;-65
2021/09/17 09:37:37;;;;;;;13.70;3.80;;;;;;;22.82;29.08;99371.35;27263;1215;3025844;-62
2021/09/17 09:40:12;;;;;;;12.40;4.80;;;;;;;22.80;28.50;99366.91;27266;1215;3026411;-66
2021/09/17 09:42:42;;;;;;;12.50;5.10;;;;;;;22.78;28.28;99361.27;27225;1215;3052385;-66
2021/09/17 09:45:25;;;;;;;17.90;5.80;;;;;;;22.77;28.79;99364.63;27208;1215;3053195;-66
2021/09/17 09:47:57;;;;;;;16.60;6.10;;;;;;;22.67;28.54;99365.50;27186;1215;3026736;-66
2021/09/17 09:50:27;;;;;;;15.60;5.30;;;;;;;22.78;28.15;99362.91;27222;1215;3055548;-67
2021/09/17 09:53:02;;;;;;;15.80;6.40;;;;;;;22.95;27.98;99358.14;27216;1215;3026074;-65
2021/09/17 09:55:32;;;;;;;15.10;5.70;;;;;;;22.89;28.28;99359.91;27175;1216;3067607;-66
2021/09/17 09:58:01;;;;;;;20.20;6.10;;;;;;;22.98;28.31;99352.39;27194;1215;3027904;-69
2021/09/17 10:00:31;;;;;;;14.40;5.70;;;;;;;23.23;27.92;99347.44;27250;1216;3025985;-66
2021/09/17 10:03:00;;;;;;;16.80;5.40;;;;;;;23.42;27.58;99344.55;27225;1216;3026497;-67
2021/09/17 10:05:31;;;;;;;8.90;4.40;;;;;;;23.61;27.62;99350.58;27215;1216;3025897;-66
2021/09/17 10:08:00;;;;;;;14.60;4.60;;;;;;;23.53;27.63;99346.30;27202;1215;3051242;-66
2021/09/17 10:10:29;;;;;;;12.20;5.10;;;;;;;23.53;27.66;99346.77;27242;1215;3026116;-66
2021/09/17 10:13:18;;;;;;;11.80;4.80;;;;;;;23.47;27.19;99340.90;27159;1218;3051683;-63
2021/09/17 10:15:46;;;;;;;15.20;5.00;;;;;;;23.48;26.89;99337.08;27249;1215;3029039;-66
2021/09/17 10:18:17;;;;;;;7.90;3.90;;;;;;;23.39;26.95;99337.23;27289;1216;3071478;-64
2021/09/17 10:20:46;;;;;;;11.80;4.10;;;;;;;23.57;26.73;99332.23;27220;1215;3026187;-69
2021/09/17 10:23:31;;;;;;;7.30;3.60;;;;;;;23.60;26.49;99333.44;27172;1215;3026148;-64
2021/09/17 10:26:04;;;;;;;10.10;3.70;;;;;;;23.72;26.38;99323.11;27216;1215;3053295;-65
2021/09/17 10:29:02;;;;;;;9.20;3.50;;;;;;;23.78;26.13;99327.38;27274;1215;3057200;-65
2021/09/17 10:31:42;;;;;;;11.50;3.70;;;;;;;23.90;26.04;99323.05;27215;1215;3049019;-64
2021/09/17 10:34:41;;;;;;;8.20;3.80;;;;;;;23.85;26.31;99319.85;27231;1215;3055288;-67
2021/09/17 10:37:10;;;;;;;10.30;3.60;;;;;;;24.01;25.97;99318.84;27230;1215;3050557;-68
2021/09/17 10:39:40;;;;;;;10.80;3.80;;;;;;;24.04;25.91;99309.38;27161;1215;3026369;-63
2021/09/17 10:42:13;;;;;;;10.30;3.70;;;;;;;24.09;25.57;99299.30;27236;1215;3027193;-68
2021/09/17 10:45:02;;;;;;;9.20;4.20;;;;;;;24.32;25.87;99293.98;27275;1215;3028066;-64
2021/09/17 10:47:39;;;;;;;6.50;3.60;;;;;;;24.35;25.84;99290.10;27240;1215;3052381;-67
2021/09/17 10:50:12;;;;;;;10.30;3.20;;;;;;;24.44;25.97;99294.31;27215;1216;3055923;-64
2021/09/17 10:53:12;;;;;;;3.00;1.90;;;;;;;24.47;25.46;99285.09;34342;1218;3026552;-65
2021/09/17 10:56:13;;;;;;;7.80;3.70;;;;;;;24.75;25.56;99280.60;34373;1218;3025770;-62
2021/09/17 10:58:43;;;;;;;6.90;3.60;;;;;;;24.97;25.33;99278.56;27203;1218;3055068;-63
2021/09/17 11:01:17;;;;;;;9.40;3.20;;;;;;;25.18;25.16;99276.33;27204;1218;3052031;-71
2021/09/17 11:03:48;;;;;;;7.80;3.10;;;;;;;25.05;25.25;99274.80;27224;1216;3026005;-63
2021/09/17 11:06:20;;;;;;;11.20;2.50;;;;;;;24.66;25.54;99270.90;27193;1218;3026597;-66
2021/09/17 11:09:06;;;;;;;5.70;2.70;;;;;;;24.47;25.44;99274.64;27217;1219;3054894;-64
2021/09/17 11:11:56;;;;;;;6.70;2.60;;;;;;;24.52;25.52;99271.36;27219;1209;3052257;-67
2021/09/17 11:14:26;;;;;;;7.00;2.80;;;;;;;24.71;25.33;99268.03;27220;1216;3026358;-63
2021/09/17 11:17:15;;;;;;;6.60;2.80;;;;;;;24.80;25.55;99267.06;27214;1216;3049101;-65
2021/09/17 11:19:56;;;;;;;11.60;3.10;;;;;;;24.81;25.48;99265.33;27285;1215;3025726;-65
2021/09/17 11:22:25;;;;;;;6.50;2.70;;;;;;;24.78;25.74;99266.77;27290;1214;3054711;-65
2021/09/17 11:25:04;;;;;;;7.80;3.10;;;;;;;24.91;25.07;99263.86;27202;1216;3025899;-65
2021/09/17 11:27:34;;;;;;;5.40;2.50;;;;;;;24.74;24.92;99254.94;27209;1215;3052593;-64
2021/09/17 11:30:07;;;;;;;6.50;2.40;;;;;;;25.04;24.71;99254.65;27206;1208;3025871;-67
2021/09/17 11:32:38;;;;;;;8.40;2.80;;;;;;;25.23;25.43;99251.27;27259;1215;3058671;-62
2021/09/17 11:35:09;;;;;;;7.50;3.00;;;;;;;25.32;25.34;99248.13;27270;1214;3026116;-64
2021/09/17 11:37:38;;;;;;;13.70;3.60;;;;;;;25.50;24.91;99248.20;27244;1216;3026056;-65
2021/09/17 11:40:27;;;;;;;6.90;2.50;;;;;;;25.53;24.52;99243.84;27245;1216;3050703;-69